ExpreSS Skopelitis — SW3130 — position and weather

sailwx.info

Track history (hours):
 
Tides and Currents Weather Stations Pressure Air Temp Water Temp Dewpoint Dewpoint Depression Visibility Wind Speed Wind Dir Waves Ship Positions

ExpreSS Skopelitis

Last reported at 2015-Apr-19 16:14 UTC. Time now 2015-Apr-19 23:01 UTC.
Position N 36°50' E 025°52'.

Length 45 m; draft 2.4 m.

Type: Passenger vessel. MMSI: 237029400.

Date/timePositionNaut miles runAvg speedWind from/ knotsBaromVisibWave heightAir tempDewpointWater temp
2015-Apr-19 16:14N 36°50' E 025°52'5 0.2
2015-Apr-18 16:26N 36°53' E 025°56'7 7.6
2015-Apr-18 15:31N 36°59' E 025°53'7 7.5
2015-Apr-18 14:33N 37°04' E 025°46'1212.1
2015-Apr-18 13:33N 36°56' E 025°36'14 6.9
2015-Apr-18 11:33N 37°02' E 025°21'5 4.8
2015-Apr-18 10:33N 37°06' E 025°22'0 0.0
2015-Apr-18 09:33N 37°06' E 025°22'4 3.9
2015-Apr-18 08:34N 37°03' E 025°21'1310.5
2015-Apr-18 07:19N 36°52' E 025°30'6 7.8
2015-Apr-18 06:31N 36°56' E 025°36'1111.4
2015-Apr-18 05:32N 37°04' E 025°46'8 8.0
2015-Apr-18 04:33N 36°60' E 025°54'7 7.2
2015-Apr-18 03:33N 36°52' E 025°54'4 0.3
2015-Apr-17 14:33N 36°51' E 025°49'1111.2
2015-Apr-17 13:32N 36°56' E 025°36'14 7.2
2015-Apr-17 11:32N 37°03' E 025°20'4 3.7
2015-Apr-17 10:32N 37°06' E 025°22'0 0.0
2015-Apr-17 09:27N 37°06' E 025°22'0 0.0
2015-Apr-17 08:31N 37°06' E 025°22'3 2.7
2015-Apr-17 07:32N 37°05' E 025°20'15 7.4
2015-Apr-17 05:33N 36°55' E 025°34'1010.1
2015-Apr-17 04:31N 36°52' E 025°46'3 0.2
2015-Apr-16 14:32N 36°50' E 025°50'1212.4
2015-Apr-16 13:32N 36°56' E 025°36'13 6.8
2015-Apr-16 11:33N 37°02' E 025°21'5 4.9
2015-Apr-16 10:33N 37°06' E 025°22'0 0.0
2015-Apr-16 09:33N 37°06' E 025°22'0 0.0
2015-Apr-16 08:33N 37°06' E 025°22'2 1.7
2015-Apr-16 07:33N 37°06' E 025°20'1610.6
2015-Apr-16 06:04N 36°52' E 025°30'4 8.2
2015-Apr-16 05:33N 36°55' E 025°34'10 9.8
2015-Apr-16 04:32N 36°52' E 025°46'8 0.7
2015-Apr-15 16:27N 36°53' E 025°56'7 7.7
2015-Apr-15 15:33N 36°59' E 025°53'7 7.2
2015-Apr-15 14:33N 37°04' E 025°46'1111.3
2015-Apr-15 13:33N 36°56' E 025°36'13 6.7
2015-Apr-15 11:33N 37°01' E 025°21'5 5.0
2015-Apr-15 10:33N 37°06' E 025°22'0 0.0
2015-Apr-15 09:33N 37°06' E 025°22'4 3.7
2015-Apr-15 08:33N 37°03' E 025°21'1310.5
2015-Apr-15 07:17N 36°52' E 025°30'6 8.3
2015-Apr-15 06:33N 36°56' E 025°36'1111.3
2015-Apr-15 05:33N 37°04' E 025°46'8 7.7
2015-Apr-15 04:33N 36°59' E 025°53'7 6.8
2015-Apr-15 03:30N 36°52' E 025°54'4 0.3
2015-Apr-14 14:32N 36°51' E 025°49'1111.3
2015-Apr-14 13:31N 36°56' E 025°36'7 6.9
2015-Apr-14 12:32N 36°52' E 025°29'1212.3
2015-Apr-14 11:33N 37°03' E 025°21'4 4.1
2015-Apr-14 10:33N 37°06' E 025°22'0 0.0
2015-Apr-14 09:33N 37°06' E 025°22'0 0.0
2015-Apr-14 08:33N 37°06' E 025°22'2 2.1
2015-Apr-14 07:33N 37°05' E 025°20'1211.9
2015-Apr-14 06:32N 36°54' E 025°27'6 5.8
2015-Apr-14 05:32N 36°55' E 025°34'1010.3
2015-Apr-14 04:32N 36°52' E 025°46'4 0.4
2015-Apr-13 16:34N 36°52' E 025°52'7 6.2
2015-Apr-13 15:29N 36°58' E 025°53'9 9.2
2015-Apr-13 14:33N 37°05' E 025°47'1211.7
2015-Apr-13 13:33N 36°56' E 025°37'8 6.8
2015-Apr-13 12:20N 36°54' E 025°27'1012.2
2015-Apr-13 11:33N 37°02' E 025°21'5 4.7
2015-Apr-13 10:33N 37°06' E 025°22'0 0.0
2015-Apr-13 09:33N 37°06' E 025°22'2 2.0
2015-Apr-13 08:33N 37°05' E 025°20'1311.8
2015-Apr-13 07:25N 36°53' E 025°28'7 6.9
2015-Apr-13 06:23N 36°56' E 025°36'1011.3
2015-Apr-13 05:31N 37°03' E 025°44'8 7.7
2015-Apr-13 04:32N 36°60' E 025°53'7 7.4
2015-Apr-13 03:32N 36°52' E 025°54'4 0.1
2015-Apr-11 17:15N 36°50' E 025°51'710.3
2015-Apr-11 16:32N 36°54' E 025°58'1010.2
2015-Apr-11 15:33N 37°02' E 025°50'6 6.3
2015-Apr-11 14:32N 37°01' E 025°43'10 9.7
2015-Apr-11 13:31N 36°55' E 025°33'8 5.7
2015-Apr-11 12:08N 36°57' E 025°24'712.2
2015-Apr-11 11:33N 37°04' E 025°20'3 3.2
2015-Apr-11 10:33N 37°06' E 025°22'2 2.3
2015-Apr-11 09:33N 37°05' E 025°20'1510.4
2015-Apr-11 08:04N 36°52' E 025°30'4 7.6
2015-Apr-11 07:32N 36°55' E 025°34'1111.3
2015-Apr-11 06:33N 37°02' E 025°44'7 6.7
2015-Apr-11 05:33N 37°01' E 025°52'9 8.3
2015-Apr-11 04:31N 36°54' E 025°58'7 6.9
2015-Apr-11 03:33N 36°50' E 025°52'  
Track history (hours):
 
Tides and Currents Weather Stations Pressure Air Temp Water Temp Dewpoint Dewpoint Depression Visibility Wind Speed Wind Dir Waves Ship Positions

ExpreSS Skopelitis

Last reported at 2015-Apr-19 16:14 UTC. Time now 2015-Apr-19 23:01 UTC.
Position N 36°50' E 025°52'.

Length 45 m; draft 2.4 m.

Type: Passenger vessel. MMSI: 237029400.

Date/timePositionNaut miles runAvg speedWind from/ knotsBaromVisibWave heightAir tempDewpointWater temp
2015-Apr-19 16:14N 36°50' E 025°52'5 0.2
2015-Apr-18 16:26N 36°53' E 025°56'7 7.6
2015-Apr-18 15:31N 36°59' E 025°53'7 7.5
2015-Apr-18 14:33N 37°04' E 025°46'1212.1
2015-Apr-18 13:33N 36°56' E 025°36'14 6.9
2015-Apr-18 11:33N 37°02' E 025°21'5 4.8
2015-Apr-18 10:33N 37°06' E 025°22'0 0.0
2015-Apr-18 09:33N 37°06' E 025°22'4 3.9
2015-Apr-18 08:34N 37°03' E 025°21'1310.5
2015-Apr-18 07:19N 36°52' E 025°30'6 7.8
2015-Apr-18 06:31N 36°56' E 025°36'1111.4
2015-Apr-18 05:32N 37°04' E 025°46'8 8.0
2015-Apr-18 04:33N 36°60' E 025°54'7 7.2
2015-Apr-18 03:33N 36°52' E 025°54'4 0.3
2015-Apr-17 14:33N 36°51' E 025°49'1111.2
2015-Apr-17 13:32N 36°56' E 025°36'14 7.2
2015-Apr-17 11:32N 37°03' E 025°20'4 3.7
2015-Apr-17 10:32N 37°06' E 025°22'0 0.0
2015-Apr-17 09:27N 37°06' E 025°22'0 0.0
2015-Apr-17 08:31N 37°06' E 025°22'3 2.7
2015-Apr-17 07:32N 37°05' E 025°20'15 7.4
2015-Apr-17 05:33N 36°55' E 025°34'1010.1
2015-Apr-17 04:31N 36°52' E 025°46'3 0.2
2015-Apr-16 14:32N 36°50' E 025°50'1212.4
2015-Apr-16 13:32N 36°56' E 025°36'13 6.8
2015-Apr-16 11:33N 37°02' E 025°21'5 4.9
2015-Apr-16 10:33N 37°06' E 025°22'0 0.0
2015-Apr-16 09:33N 37°06' E 025°22'0 0.0
2015-Apr-16 08:33N 37°06' E 025°22'2 1.7
2015-Apr-16 07:33N 37°06' E 025°20'1610.6
2015-Apr-16 06:04N 36°52' E 025°30'4 8.2
2015-Apr-16 05:33N 36°55' E 025°34'10 9.8
2015-Apr-16 04:32N 36°52' E 025°46'8 0.7
2015-Apr-15 16:27N 36°53' E 025°56'7 7.7
2015-Apr-15 15:33N 36°59' E 025°53'7 7.2
2015-Apr-15 14:33N 37°04' E 025°46'1111.3
2015-Apr-15 13:33N 36°56' E 025°36'13 6.7
2015-Apr-15 11:33N 37°01' E 025°21'5 5.0
2015-Apr-15 10:33N 37°06' E 025°22'0 0.0
2015-Apr-15 09:33N 37°06' E 025°22'4 3.7
2015-Apr-15 08:33N 37°03' E 025°21'1310.5
2015-Apr-15 07:17N 36°52' E 025°30'6 8.3
2015-Apr-15 06:33N 36°56' E 025°36'1111.3
2015-Apr-15 05:33N 37°04' E 025°46'8 7.7
2015-Apr-15 04:33N 36°59' E 025°53'7 6.8
2015-Apr-15 03:30N 36°52' E 025°54'4 0.3
2015-Apr-14 14:32N 36°51' E 025°49'1111.3
2015-Apr-14 13:31N 36°56' E 025°36'7 6.9
2015-Apr-14 12:32N 36°52' E 025°29'1212.3
2015-Apr-14 11:33N 37°03' E 025°21'4 4.1
2015-Apr-14 10:33N 37°06' E 025°22'0 0.0
2015-Apr-14 09:33N 37°06' E 025°22'0 0.0
2015-Apr-14 08:33N 37°06' E 025°22'2 2.1
2015-Apr-14 07:33N 37°05' E 025°20'1211.9
2015-Apr-14 06:32N 36°54' E 025°27'6 5.8
2015-Apr-14 05:32N 36°55' E 025°34'1010.3
2015-Apr-14 04:32N 36°52' E 025°46'4 0.4
2015-Apr-13 16:34N 36°52' E 025°52'7 6.2
2015-Apr-13 15:29N 36°58' E 025°53'9 9.2
2015-Apr-13 14:33N 37°05' E 025°47'1211.7
2015-Apr-13 13:33N 36°56' E 025°37'8 6.8
2015-Apr-13 12:20N 36°54' E 025°27'1012.2
2015-Apr-13 11:33N 37°02' E 025°21'5 4.7
2015-Apr-13 10:33N 37°06' E 025°22'0 0.0
2015-Apr-13 09:33N 37°06' E 025°22'2 2.0
2015-Apr-13 08:33N 37°05' E 025°20'1311.8
2015-Apr-13 07:25N 36°53' E 025°28'7 6.9
2015-Apr-13 06:23N 36°56' E 025°36'1011.3
2015-Apr-13 05:31N 37°03' E 025°44'8 7.7
2015-Apr-13 04:32N 36°60' E 025°53'7 7.4
2015-Apr-13 03:32N 36°52' E 025°54'4 0.1
2015-Apr-11 17:15N 36°50' E 025°51'710.3
2015-Apr-11 16:32N 36°54' E 025°58'1010.2
2015-Apr-11 15:33N 37°02' E 025°50'6 6.3
2015-Apr-11 14:32N 37°01' E 025°43'10 9.7
2015-Apr-11 13:31N 36°55' E 025°33'8 5.7
2015-Apr-11 12:08N 36°57' E 025°24'712.2
2015-Apr-11 11:33N 37°04' E 025°20'3 3.2
2015-Apr-11 10:33N 37°06' E 025°22'2 2.3
2015-Apr-11 09:33N 37°05' E 025°20'1510.4
2015-Apr-11 08:04N 36°52' E 025°30'4 7.6
2015-Apr-11 07:32N 36°55' E 025°34'1111.3
2015-Apr-11 06:33N 37°02' E 025°44'7 6.7
2015-Apr-11 05:33N 37°01' E 025°52'9 8.3
2015-Apr-11 04:31N 36°54' E 025°58'7 6.9
2015-Apr-11 03:33N 36°50' E 025°52'  

Dump ship's entire track history